sensor_id;sensor_type;location;lat;lon;timestamp;P1;durP1;ratioP1;P2;durP2;ratioP2
7193;SDS011;3638;48.820;9.244;2022-09-01T00:02:22;15.67;;;13.90;;
7193;SDS011;3638;48.820;9.244;2022-09-01T00:04:51;15.20;;;13.70;;
7193;SDS011;3638;48.820;9.244;2022-09-01T00:07:22;15.47;;;13.93;;
7193;SDS011;3638;48.820;9.244;2022-09-01T00:09:50;15.03;;;13.47;;
7193;SDS011;3638;48.820;9.244;2022-09-01T00:12:18;15.73;;;14.10;;
7193;SDS011;3638;48.820;9.244;2022-09-01T00:14:47;15.80;;;13.77;;
7193;SDS011;3638;48.820;9.244;2022-09-01T00:17:14;15.30;;;12.97;;
7193;SDS011;3638;48.820;9.244;2022-09-01T00:19:41;15.53;;;13.93;;
7193;SDS011;3638;48.820;9.244;2022-09-01T00:22:08;17.30;;;15.33;;
7193;SDS011;3638;48.820;9.244;2022-09-01T00:24:35;15.27;;;13.63;;
7193;SDS011;3638;48.820;9.244;2022-09-01T00:27:03;15.53;;;13.93;;
7193;SDS011;3638;48.820;9.244;2022-09-01T00:29:31;16.13;;;14.63;;
7193;SDS011;3638;48.820;9.244;2022-09-01T00:31:58;15.80;;;14.20;;
7193;SDS011;3638;48.820;9.244;2022-09-01T00:34:25;17.50;;;15.30;;
7193;SDS011;3638;48.820;9.244;2022-09-01T00:36:52;15.93;;;14.23;;
7193;SDS011;3638;48.820;9.244;2022-09-01T00:39:20;16.13;;;14.43;;
7193;SDS011;3638;48.820;9.244;2022-09-01T00:41:47;16.57;;;14.83;;
7193;SDS011;3638;48.820;9.244;2022-09-01T00:44:16;16.93;;;15.23;;
7193;SDS011;3638;48.820;9.244;2022-09-01T00:46:49;15.63;;;14.07;;
7193;SDS011;3638;48.820;9.244;2022-09-01T00:49:18;16.87;;;15.17;;
7193;SDS011;3638;48.820;9.244;2022-09-01T00:51:53;15.83;;;14.17;;
7193;SDS011;3638;48.820;9.244;2022-09-01T00:54:25;17.20;;;15.43;;
7193;SDS011;3638;48.820;9.244;2022-09-01T00:56:56;16.80;;;15.00;;
7193;SDS011;3638;48.820;9.244;2022-09-01T00:59:24;16.33;;;14.50;;
7193;SDS011;3638;48.820;9.244;2022-09-01T01:01:54;16.17;;;13.70;;
7193;SDS011;3638;48.820;9.244;2022-09-01T01:04:22;16.03;;;14.23;;
7193;SDS011;3638;48.820;9.244;2022-09-01T01:06:51;16.17;;;14.57;;
7193;SDS011;3638;48.820;9.244;2022-09-01T01:09:26;16.40;;;14.80;;
7193;SDS011;3638;48.820;9.244;2022-09-01T01:11:56;15.50;;;13.90;;
7193;SDS011;3638;48.820;9.244;2022-09-01T01:14:24;15.27;;;13.67;;
7193;SDS011;3638;48.820;9.244;2022-09-01T01:16:57;15.37;;;13.67;;
7193;SDS011;3638;48.820;9.244;2022-09-01T01:19:28;16.10;;;14.47;;
7193;SDS011;3638;48.820;9.244;2022-09-01T01:22:26;15.97;;;14.37;;
7193;SDS011;3638;48.820;9.244;2022-09-01T01:25:19;16.43;;;13.97;;
7193;SDS011;3638;48.820;9.244;2022-09-01T01:27:48;14.87;;;13.37;;
7193;SDS011;3638;48.820;9.244;2022-09-01T01:30:15;17.87;;;14.07;;
7193;SDS011;3638;48.820;9.244;2022-09-01T01:32:44;15.93;;;14.23;;
7193;SDS011;3638;48.820;9.244;2022-09-01T01:35:14;14.97;;;13.57;;
7193;SDS011;3638;48.820;9.244;2022-09-01T01:37:47;17.90;;;14.57;;
7193;SDS011;3638;48.820;9.244;2022-09-01T01:40:15;18.00;;;14.80;;
7193;SDS011;3638;48.820;9.244;2022-09-01T01:42:48;15.13;;;13.57;;
7193;SDS011;3638;48.820;9.244;2022-09-01T01:45:18;16.00;;;13.63;;
7193;SDS011;3638;48.820;9.244;2022-09-01T01:47:48;17.20;;;15.40;;
7193;SDS011;3638;48.820;9.244;2022-09-01T01:50:17;17.27;;;14.57;;
7193;SDS011;3638;48.820;9.244;2022-09-01T01:52:45;15.80;;;13.80;;
7193;SDS011;3638;48.820;9.244;2022-09-01T01:55:12;14.87;;;13.33;;
7193;SDS011;3638;48.820;9.244;2022-09-01T01:57:44;13.93;;;12.43;;
7193;SDS011;3638;48.820;9.244;2022-09-01T02:00:14;15.57;;;13.77;;
7193;SDS011;3638;48.820;9.244;2022-09-01T02:02:43;15.53;;;13.93;;
7193;SDS011;3638;48.820;9.244;2022-09-01T02:05:16;15.13;;;13.63;;
7193;SDS011;3638;48.820;9.244;2022-09-01T02:07:49;16.13;;;13.77;;
7193;SDS011;3638;48.820;9.244;2022-09-01T02:10:21;15.20;;;12.93;;
7193;SDS011;3638;48.820;9.244;2022-09-01T02:12:52;15.80;;;13.43;;
7193;SDS011;3638;48.820;9.244;2022-09-01T02:15:19;15.10;;;13.50;;
7193;SDS011;3638;48.820;9.244;2022-09-01T02:17:46;15.43;;;13.67;;
7193;SDS011;3638;48.820;9.244;2022-09-01T02:20:14;19.50;;;13.80;;
7193;SDS011;3638;48.820;9.244;2022-09-01T02:22:42;17.37;;;13.57;;
7193;SDS011;3638;48.820;9.244;2022-09-01T02:25:10;17.33;;;12.90;;
7193;SDS011;3638;48.820;9.244;2022-09-01T02:27:40;15.07;;;13.30;;
7193;SDS011;3638;48.820;9.244;2022-09-01T02:30:09;15.07;;;12.73;;
7193;SDS011;3638;48.820;9.244;2022-09-01T02:32:37;13.80;;;12.40;;
7193;SDS011;3638;48.820;9.244;2022-09-01T02:35:06;16.53;;;14.60;;
7193;SDS011;3638;48.820;9.244;2022-09-01T02:37:36;17.97;;;14.90;;
7193;SDS011;3638;48.820;9.244;2022-09-01T02:40:06;17.17;;;14.93;;
7193;SDS011;3638;48.820;9.244;2022-09-01T02:42:36;16.37;;;14.37;;
7193;SDS011;3638;48.820;9.244;2022-09-01T02:45:07;17.43;;;15.63;;
7193;SDS011;3638;48.820;9.244;2022-09-01T02:47:40;16.10;;;14.50;;
7193;SDS011;3638;48.820;9.244;2022-09-01T02:50:10;16.77;;;15.07;;
7193;SDS011;3638;48.820;9.244;2022-09-01T02:52:41;16.67;;;14.97;;
7193;SDS011;3638;48.820;9.244;2022-09-01T02:55:09;16.07;;;13.87;;
7193;SDS011;3638;48.820;9.244;2022-09-01T02:57:37;15.40;;;13.90;;
7193;SDS011;3638;48.820;9.244;2022-09-01T03:00:04;16.30;;;14.70;;
7193;SDS011;3638;48.820;9.244;2022-09-01T03:02:46;16.57;;;14.83;;
7193;SDS011;3638;48.820;9.244;2022-09-01T03:05:16;18.53;;;14.90;;
7193;SDS011;3638;48.820;9.244;2022-09-01T03:07:49;16.77;;;15.17;;
7193;SDS011;3638;48.820;9.244;2022-09-01T03:10:20;17.67;;;14.63;;
7193;SDS011;3638;48.820;9.244;2022-09-01T03:12:55;17.80;;;16.10;;
7193;SDS011;3638;48.820;9.244;2022-09-01T03:15:26;17.43;;;15.50;;
7193;SDS011;3638;48.820;9.244;2022-09-01T03:17:56;16.60;;;14.90;;
7193;SDS011;3638;48.820;9.244;2022-09-01T03:20:25;18.17;;;16.33;;
7193;SDS011;3638;48.820;9.244;2022-09-01T03:22:52;18.93;;;16.83;;
7193;SDS011;3638;48.820;9.244;2022-09-01T03:25:22;16.97;;;15.17;;
7193;SDS011;3638;48.820;9.244;2022-09-01T03:27:50;17.10;;;15.37;;
7193;SDS011;3638;48.820;9.244;2022-09-01T03:30:17;19.27;;;17.17;;
7193;SDS011;3638;48.820;9.244;2022-09-01T03:32:45;18.73;;;16.47;;
7193;SDS011;3638;48.820;9.244;2022-09-01T03:35:14;17.57;;;15.87;;
7193;SDS011;3638;48.820;9.244;2022-09-01T03:37:41;19.57;;;16.57;;
7193;SDS011;3638;48.820;9.244;2022-09-01T03:40:10;16.93;;;15.27;;
7193;SDS011;3638;48.820;9.244;2022-09-01T03:42:40;20.27;;;16.83;;
7193;SDS011;3638;48.820;9.244;2022-09-01T03:45:08;19.57;;;17.47;;
7193;SDS011;3638;48.820;9.244;2022-09-01T03:47:40;19.13;;;16.33;;
7193;SDS011;3638;48.820;9.244;2022-09-01T03:50:09;19.13;;;16.80;;
7193;SDS011;3638;48.820;9.244;2022-09-01T03:52:44;18.67;;;16.77;;
7193;SDS011;3638;48.820;9.244;2022-09-01T03:55:13;17.97;;;16.13;;
7193;SDS011;3638;48.820;9.244;2022-09-01T03:57:43;20.10;;;16.77;;
7193;SDS011;3638;48.820;9.244;2022-09-01T04:00:11;18.10;;;16.30;;
7193;SDS011;3638;48.820;9.244;2022-09-01T04:02:45;18.10;;;16.27;;
7193;SDS011;3638;48.820;9.244;2022-09-01T04:05:15;19.00;;;16.87;;
7193;SDS011;3638;48.820;9.244;2022-09-01T04:07:45;19.00;;;17.00;;
7193;SDS011;3638;48.820;9.244;2022-09-01T04:10:13;21.00;;;16.83;;
7193;SDS011;3638;48.820;9.244;2022-09-01T04:12:41;20.07;;;16.33;;
7193;SDS011;3638;48.820;9.244;2022-09-01T04:15:09;19.03;;;17.03;;
7193;SDS011;3638;48.820;9.244;2022-09-01T04:17:37;19.57;;;17.53;;
7193;SDS011;3638;48.820;9.244;2022-09-01T04:20:23;20.60;;;17.73;;
7193;SDS011;3638;48.820;9.244;2022-09-01T04:22:50;21.83;;;18.07;;
7193;SDS011;3638;48.820;9.244;2022-09-01T04:25:18;18.77;;;16.70;;
7193;SDS011;3638;48.820;9.244;2022-09-01T04:27:47;19.43;;;16.93;;
7193;SDS011;3638;48.820;9.244;2022-09-01T04:30:15;20.33;;;18.20;;
7193;SDS011;3638;48.820;9.244;2022-09-01T04:32:42;21.03;;;17.37;;
7193;SDS011;3638;48.820;9.244;2022-09-01T04:35:10;17.93;;;16.13;;
7193;SDS011;3638;48.820;9.244;2022-09-01T04:37:42;18.30;;;15.63;;
7193;SDS011;3638;48.820;9.244;2022-09-01T04:40:11;18.93;;;16.93;;
7193;SDS011;3638;48.820;9.244;2022-09-01T04:42:39;19.90;;;17.43;;
7193;SDS011;3638;48.820;9.244;2022-09-01T04:45:07;23.70;;;17.23;;
7193;SDS011;3638;48.820;9.244;2022-09-01T04:47:36;18.80;;;16.90;;
7193;SDS011;3638;48.820;9.244;2022-09-01T04:50:06;17.23;;;15.50;;
7193;SDS011;3638;48.820;9.244;2022-09-01T04:52:38;18.27;;;16.27;;
7193;SDS011;3638;48.820;9.244;2022-09-01T04:55:09;20.07;;;17.07;;
7193;SDS011;3638;48.820;9.244;2022-09-01T04:57:41;18.10;;;16.20;;
7193;SDS011;3638;48.820;9.244;2022-09-01T05:00:12;19.67;;;16.27;;
7193;SDS011;3638;48.820;9.244;2022-09-01T05:02:46;19.97;;;16.70;;
7193;SDS011;3638;48.820;9.244;2022-09-01T05:05:16;19.97;;;16.80;;
7193;SDS011;3638;48.820;9.244;2022-09-01T05:07:44;19.00;;;17.03;;
7193;SDS011;3638;48.820;9.244;2022-09-01T05:10:18;19.00;;;16.60;;
7193;SDS011;3638;48.820;9.244;2022-09-01T05:12:46;19.43;;;16.40;;
7193;SDS011;3638;48.820;9.244;2022-09-01T05:15:14;22.53;;;20.13;;
7193;SDS011;3638;48.820;9.244;2022-09-01T05:17:41;23.00;;;19.33;;
7193;SDS011;3638;48.820;9.244;2022-09-01T05:20:08;20.53;;;18.43;;
7193;SDS011;3638;48.820;9.244;2022-09-01T05:22:37;22.77;;;19.60;;
7193;SDS011;3638;48.820;9.244;2022-09-01T05:25:05;22.23;;;19.93;;
7193;SDS011;3638;48.820;9.244;2022-09-01T05:27:38;22.63;;;19.80;;
7193;SDS011;3638;48.820;9.244;2022-09-01T05:30:13;21.97;;;18.67;;
7193;SDS011;3638;48.820;9.244;2022-09-01T05:32:42;21.50;;;19.30;;
7193;SDS011;3638;48.820;9.244;2022-09-01T05:35:11;23.03;;;18.53;;
7193;SDS011;3638;48.820;9.244;2022-09-01T05:37:38;22.97;;;18.63;;
7193;SDS011;3638;48.820;9.244;2022-09-01T05:40:07;22.60;;;19.53;;
7193;SDS011;3638;48.820;9.244;2022-09-01T05:42:41;21.23;;;19.00;;
7193;SDS011;3638;48.820;9.244;2022-09-01T05:45:08;23.30;;;19.47;;
7193;SDS011;3638;48.820;9.244;2022-09-01T05:47:36;21.10;;;17.93;;
7193;SDS011;3638;48.820;9.244;2022-09-01T05:50:03;22.93;;;19.60;;
7193;SDS011;3638;48.820;9.244;2022-09-01T05:52:35;24.67;;;19.93;;
7193;SDS011;3638;48.820;9.244;2022-09-01T05:55:04;25.00;;;21.03;;
7193;SDS011;3638;48.820;9.244;2022-09-01T05:57:34;22.83;;;19.43;;
7193;SDS011;3638;48.820;9.244;2022-09-01T06:00:06;21.67;;;19.00;;
7193;SDS011;3638;48.820;9.244;2022-09-01T06:02:37;21.27;;;18.57;;
7193;SDS011;3638;48.820;9.244;2022-09-01T06:05:05;19.43;;;17.33;;
7193;SDS011;3638;48.820;9.244;2022-09-01T06:07:32;20.90;;;18.53;;
7193;SDS011;3638;48.820;9.244;2022-09-01T06:10:07;19.73;;;17.77;;
7193;SDS011;3638;48.820;9.244;2022-09-01T06:12:34;19.83;;;17.07;;
7193;SDS011;3638;48.820;9.244;2022-09-01T06:15:01;21.43;;;17.33;;
7193;SDS011;3638;48.820;9.244;2022-09-01T06:17:29;22.43;;;19.23;;
7193;SDS011;3638;48.820;9.244;2022-09-01T06:19:57;22.97;;;18.83;;
7193;SDS011;3638;48.820;9.244;2022-09-01T06:22:25;23.30;;;19.13;;
7193;SDS011;3638;48.820;9.244;2022-09-01T06:24:53;23.53;;;17.53;;
7193;SDS011;3638;48.820;9.244;2022-09-01T06:27:21;22.35;;;18.00;;
7193;SDS011;3638;48.820;9.244;2022-09-01T06:29:47;23.10;;;18.58;;
7193;SDS011;3638;48.820;9.244;2022-09-01T06:32:18;22.07;;;17.67;;
7193;SDS011;3638;48.820;9.244;2022-09-01T06:34:47;19.87;;;17.10;;
7193;SDS011;3638;48.820;9.244;2022-09-01T06:37:15;18.20;;;16.25;;
7193;SDS011;3638;48.820;9.244;2022-09-01T06:39:46;18.35;;;16.45;;
7193;SDS011;3638;48.820;9.244;2022-09-01T06:42:14;17.98;;;16.05;;
7193;SDS011;3638;48.820;9.244;2022-09-01T06:44:41;17.70;;;15.60;;
7193;SDS011;3638;48.820;9.244;2022-09-01T06:47:09;16.15;;;14.50;;
7193;SDS011;3638;48.820;9.244;2022-09-01T06:49:53;16.58;;;14.45;;
7193;SDS011;3638;48.820;9.244;2022-09-01T06:52:23;16.90;;;15.13;;
7193;SDS011;3638;48.820;9.244;2022-09-01T06:54:50;16.40;;;14.65;;
7193;SDS011;3638;48.820;9.244;2022-09-01T06:57:18;15.43;;;13.82;;
7193;SDS011;3638;48.820;9.244;2022-09-01T06:59:46;14.02;;;12.52;;
7193;SDS011;3638;48.820;9.244;2022-09-01T07:02:14;14.15;;;12.65;;
7193;SDS011;3638;48.820;9.244;2022-09-01T07:04:42;13.45;;;12.15;;
7193;SDS011;3638;48.820;9.244;2022-09-01T07:07:11;14.25;;;12.27;;
7193;SDS011;3638;48.820;9.244;2022-09-01T07:09:38;15.13;;;12.82;;
7193;SDS011;3638;48.820;9.244;2022-09-01T07:12:06;13.82;;;11.18;;
7193;SDS011;3638;48.820;9.244;2022-09-01T07:14:34;12.52;;;10.77;;
7193;SDS011;3638;48.820;9.244;2022-09-01T07:17:01;12.82;;;11.52;;
7193;SDS011;3638;48.820;9.244;2022-09-01T07:19:28;14.38;;;10.88;;
7193;SDS011;3638;48.820;9.244;2022-09-01T07:21:59;13.48;;;11.75;;
7193;SDS011;3638;48.820;9.244;2022-09-01T07:24:27;12.20;;;10.82;;
7193;SDS011;3638;48.820;9.244;2022-09-01T07:26:54;13.68;;;11.35;;
7193;SDS011;3638;48.820;9.244;2022-09-01T07:29:21;10.88;;;9.88;;
7193;SDS011;3638;48.820;9.244;2022-09-01T07:31:50;11.37;;;10.17;;
7193;SDS011;3638;48.820;9.244;2022-09-01T07:34:20;13.68;;;10.60;;
7193;SDS011;3638;48.820;9.244;2022-09-01T07:36:46;11.93;;;9.90;;
7193;SDS011;3638;48.820;9.244;2022-09-01T07:39:14;11.75;;;10.50;;
7193;SDS011;3638;48.820;9.244;2022-09-01T07:41:43;10.60;;;9.60;;
7193;SDS011;3638;48.820;9.244;2022-09-01T07:44:10;11.43;;;10.07;;
7193;SDS011;3638;48.820;9.244;2022-09-01T07:46:37;10.55;;;9.50;;
7193;SDS011;3638;48.820;9.244;2022-09-01T07:49:04;11.75;;;10.60;;
7193;SDS011;3638;48.820;9.244;2022-09-01T07:51:32;13.43;;;10.38;;
7193;SDS011;3638;48.820;9.244;2022-09-01T07:54:00;12.30;;;11.07;;
7193;SDS011;3638;48.820;9.244;2022-09-01T07:56:27;11.88;;;10.30;;
7193;SDS011;3638;48.820;9.244;2022-09-01T07:58:56;11.65;;;10.45;;
7193;SDS011;3638;48.820;9.244;2022-09-01T08:01:24;10.45;;;9.45;;
7193;SDS011;3638;48.820;9.244;2022-09-01T08:03:53;10.00;;;9.00;;
7193;SDS011;3638;48.820;9.244;2022-09-01T08:06:24;9.75;;;8.75;;
7193;SDS011;3638;48.820;9.244;2022-09-01T08:08:53;10.00;;;8.93;;
7193;SDS011;3638;48.820;9.244;2022-09-01T08:11:22;9.32;;;8.35;;
7193;SDS011;3638;48.820;9.244;2022-09-01T08:13:53;9.93;;;8.73;;
7193;SDS011;3638;48.820;9.244;2022-09-01T08:16:24;9.93;;;8.93;;
7193;SDS011;3638;48.820;9.244;2022-09-01T08:18:51;10.50;;;9.48;;
7193;SDS011;3638;48.820;9.244;2022-09-01T08:21:19;10.15;;;9.05;;
7193;SDS011;3638;48.820;9.244;2022-09-01T08:23:47;10.38;;;9.38;;
7193;SDS011;3638;48.820;9.244;2022-09-01T08:26:15;9.82;;;8.82;;
7193;SDS011;3638;48.820;9.244;2022-09-01T08:28:46;9.60;;;8.60;;
7193;SDS011;3638;48.820;9.244;2022-09-01T08:31:15;9.43;;;8.43;;
7193;SDS011;3638;48.820;9.244;2022-09-01T08:33:46;9.35;;;7.35;;
7193;SDS011;3638;48.820;9.244;2022-09-01T08:36:15;8.88;;;7.78;;
7193;SDS011;3638;48.820;9.244;2022-09-01T08:38:43;9.27;;;8.23;;
7193;SDS011;3638;48.820;9.244;2022-09-01T08:41:14;10.05;;;8.27;;
7193;SDS011;3638;48.820;9.244;2022-09-01T08:43:49;7.85;;;7.05;;
7193;SDS011;3638;48.820;9.244;2022-09-01T08:46:28;6.28;;;5.68;;
7193;SDS011;3638;48.820;9.244;2022-09-01T08:49:00;5.80;;;5.30;;
7193;SDS011;3638;48.820;9.244;2022-09-01T08:51:34;6.97;;;6.35;;
7193;SDS011;3638;48.820;9.244;2022-09-01T08:54:06;6.60;;;5.90;;
7193;SDS011;3638;48.820;9.244;2022-09-01T08:56:41;5.95;;;5.18;;
7193;SDS011;3638;48.820;9.244;2022-09-01T08:59:08;6.15;;;5.53;;
7193;SDS011;3638;48.820;9.244;2022-09-01T09:01:39;6.75;;;6.15;;
7193;SDS011;3638;48.820;9.244;2022-09-01T09:04:20;6.53;;;5.85;;
7193;SDS011;3638;48.820;9.244;2022-09-01T09:07:01;6.13;;;5.53;;
7193;SDS011;3638;48.820;9.244;2022-09-01T09:09:37;5.50;;;5.00;;
7193;SDS011;3638;48.820;9.244;2022-09-01T09:12:12;6.82;;;5.38;;
7193;SDS011;3638;48.820;9.244;2022-09-01T09:14:58;6.60;;;5.43;;
7193;SDS011;3638;48.820;9.244;2022-09-01T09:17:38;5.65;;;5.10;;
7193;SDS011;3638;48.820;9.244;2022-09-01T09:20:11;6.30;;;5.70;;
7193;SDS011;3638;48.820;9.244;2022-09-01T09:22:38;6.90;;;6.20;;
7193;SDS011;3638;48.820;9.244;2022-09-01T09:25:08;6.40;;;5.80;;
7193;SDS011;3638;48.820;9.244;2022-09-01T09:27:39;6.60;;;5.70;;
7193;SDS011;3638;48.820;9.244;2022-09-01T09:30:08;8.07;;;6.32;;
7193;SDS011;3638;48.820;9.244;2022-09-01T09:32:42;6.15;;;5.55;;
7193;SDS011;3638;48.820;9.244;2022-09-01T09:35:20;6.57;;;5.97;;
7193;SDS011;3638;48.820;9.244;2022-09-01T09:37:51;6.45;;;5.35;;
7193;SDS011;3638;48.820;9.244;2022-09-01T09:40:19;5.93;;;5.43;;
7193;SDS011;3638;48.820;9.244;2022-09-01T09:43:00;6.57;;;5.95;;
7193;SDS011;3638;48.820;9.244;2022-09-01T09:45:31;6.03;;;5.43;;
7193;SDS011;3638;48.820;9.244;2022-09-01T09:48:05;6.57;;;5.68;;
7193;SDS011;3638;48.820;9.244;2022-09-01T09:50:37;5.95;;;5.40;;
7193;SDS011;3638;48.820;9.244;2022-09-01T09:53:17;6.13;;;5.53;;
7193;SDS011;3638;48.820;9.244;2022-09-01T09:55:55;5.85;;;5.20;;
7193;SDS011;3638;48.820;9.244;2022-09-01T09:58:27;5.90;;;5.30;;
7193;SDS011;3638;48.820;9.244;2022-09-01T10:01:03;5.65;;;5.10;;
7193;SDS011;3638;48.820;9.244;2022-09-01T10:03:36;5.53;;;4.90;;
7193;SDS011;3638;48.820;9.244;2022-09-01T10:06:12;4.95;;;4.45;;
7193;SDS011;3638;48.820;9.244;2022-09-01T10:08:55;5.25;;;4.75;;
7193;SDS011;3638;48.820;9.244;2022-09-01T10:11:24;5.53;;;4.97;;
7193;SDS011;3638;48.820;9.244;2022-09-01T10:13:54;5.65;;;4.93;;
7193;SDS011;3638;48.820;9.244;2022-09-01T10:16:23;4.72;;;4.32;;
7193;SDS011;3638;48.820;9.244;2022-09-01T10:18:55;5.38;;;4.50;;
7193;SDS011;3638;48.820;9.244;2022-09-01T10:21:31;5.60;;;5.07;;
7193;SDS011;3638;48.820;9.244;2022-09-01T10:24:02;4.95;;;4.47;;
7193;SDS011;3638;48.820;9.244;2022-09-01T10:26:37;5.18;;;4.68;;
7193;SDS011;3638;48.820;9.244;2022-09-01T10:29:08;4.75;;;4.10;;
7193;SDS011;3638;48.820;9.244;2022-09-01T10:31:41;4.38;;;3.83;;
7193;SDS011;3638;48.820;9.244;2022-09-01T10:34:10;4.75;;;4.32;;
7193;SDS011;3638;48.820;9.244;2022-09-01T10:36:43;4.65;;;4.25;;
7193;SDS011;3638;48.820;9.244;2022-09-01T10:39:13;5.05;;;3.88;;
7193;SDS011;3638;48.820;9.244;2022-09-01T10:41:44;4.45;;;4.05;;
7193;SDS011;3638;48.820;9.244;2022-09-01T10:44:18;4.82;;;4.20;;
7193;SDS011;3638;48.820;9.244;2022-09-01T10:46:54;4.80;;;4.32;;
7193;SDS011;3638;48.820;9.244;2022-09-01T10:55:31;5.20;;;4.60;;
7193;SDS011;3638;48.820;9.244;2022-09-01T10:58:19;4.68;;;4.28;;
7193;SDS011;3638;48.820;9.244;2022-09-01T11:07:42;4.28;;;3.92;;
7193;SDS011;3638;48.820;9.244;2022-09-01T11:13:30;4.80;;;4.40;;
7193;SDS011;3638;48.820;9.244;2022-09-01T11:16:27;4.25;;;3.85;;
7193;SDS011;3638;48.820;9.244;2022-09-01T11:22:02;3.97;;;3.60;;
7193;SDS011;3638;48.820;9.244;2022-09-01T11:25:04;3.92;;;3.53;;
7193;SDS011;3638;48.820;9.244;2022-09-01T11:30:33;4.32;;;3.72;;
7193;SDS011;3638;48.820;9.244;2022-09-01T11:33:17;4.20;;;3.85;;
7193;SDS011;3638;48.820;9.244;2022-09-01T11:35:57;5.68;;;3.60;;
7193;SDS011;3638;48.820;9.244;2022-09-01T11:38:28;4.35;;;3.95;;
7193;SDS011;3638;48.820;9.244;2022-09-01T11:41:07;4.57;;;3.60;;
7193;SDS011;3638;48.820;9.244;2022-09-01T11:43:35;3.72;;;3.42;;
7193;SDS011;3638;48.820;9.244;2022-09-01T11:46:04;7.07;;;3.97;;
7193;SDS011;3638;48.820;9.244;2022-09-01T11:48:43;4.38;;;3.80;;
7193;SDS011;3638;48.820;9.244;2022-09-01T11:51:12;4.30;;;3.90;;
7193;SDS011;3638;48.820;9.244;2022-09-01T11:53:40;4.60;;;4.20;;
7193;SDS011;3638;48.820;9.244;2022-09-01T11:56:12;4.18;;;3.78;;
7193;SDS011;3638;48.820;9.244;2022-09-01T11:58:45;4.60;;;3.63;;
7193;SDS011;3638;48.820;9.244;2022-09-01T12:01:14;4.18;;;3.75;;
7193;SDS011;3638;48.820;9.244;2022-09-01T12:03:45;3.80;;;3.50;;
7193;SDS011;3638;48.820;9.244;2022-09-01T12:06:17;3.97;;;3.67;;
7193;SDS011;3638;48.820;9.244;2022-09-01T12:08:51;3.83;;;3.25;;
7193;SDS011;3638;48.820;9.244;2022-09-01T12:11:22;4.65;;;3.38;;
7193;SDS011;3638;48.820;9.244;2022-09-01T12:13:56;3.45;;;3.20;;
7193;SDS011;3638;48.820;9.244;2022-09-01T12:16:26;3.80;;;3.47;;
7193;SDS011;3638;48.820;9.244;2022-09-01T12:18:56;4.15;;;3.75;;
7193;SDS011;3638;48.820;9.244;2022-09-01T12:21:25;3.83;;;3.53;;
7193;SDS011;3638;48.820;9.244;2022-09-01T12:24:08;3.85;;;3.55;;
7193;SDS011;3638;48.820;9.244;2022-09-01T12:26:39;4.63;;;3.15;;
7193;SDS011;3638;48.820;9.244;2022-09-01T12:29:08;3.30;;;3.00;;
7193;SDS011;3638;48.820;9.244;2022-09-01T12:31:35;3.65;;;3.35;;
7193;SDS011;3638;48.820;9.244;2022-09-01T12:34:05;4.07;;;2.85;;
7193;SDS011;3638;48.820;9.244;2022-09-01T12:37:09;3.40;;;3.10;;
7193;SDS011;3638;48.820;9.244;2022-09-01T12:39:47;3.30;;;3.05;;
7193;SDS011;3638;48.820;9.244;2022-09-01T12:42:23;3.40;;;3.10;;
7193;SDS011;3638;48.820;9.244;2022-09-01T12:44:55;3.85;;;3.40;;
7193;SDS011;3638;48.820;9.244;2022-09-01T12:47:44;3.67;;;3.38;;
7193;SDS011;3638;48.820;9.244;2022-09-01T12:53:19;3.53;;;3.20;;
7193;SDS011;3638;48.820;9.244;2022-09-01T12:56:03;3.70;;;3.40;;
7193;SDS011;3638;48.820;9.244;2022-09-01T12:58:43;3.63;;;3.33;;
7193;SDS011;3638;48.820;9.244;2022-09-01T13:01:30;3.90;;;3.50;;
7193;SDS011;3638;48.820;9.244;2022-09-01T13:04:06;4.00;;;3.70;;
7193;SDS011;3638;48.820;9.244;2022-09-01T13:06:46;5.13;;;3.95;;
7193;SDS011;3638;48.820;9.244;2022-09-01T13:09:14;3.90;;;3.60;;
7193;SDS011;3638;48.820;9.244;2022-09-01T13:11:41;5.13;;;4.07;;
7193;SDS011;3638;48.820;9.244;2022-09-01T13:14:11;3.88;;;3.58;;
7193;SDS011;3638;48.820;9.244;2022-09-01T13:16:40;3.60;;;3.33;;
7193;SDS011;3638;48.820;9.244;2022-09-01T13:19:07;3.72;;;3.42;;
7193;SDS011;3638;48.820;9.244;2022-09-01T13:21:34;4.10;;;3.60;;
7193;SDS011;3638;48.820;9.244;2022-09-01T13:24:02;3.40;;;3.20;;
7193;SDS011;3638;48.820;9.244;2022-09-01T13:26:31;3.95;;;3.65;;
7193;SDS011;3638;48.820;9.244;2022-09-01T13:28:58;4.07;;;3.78;;
7193;SDS011;3638;48.820;9.244;2022-09-01T13:31:25;5.28;;;4.28;;
7193;SDS011;3638;48.820;9.244;2022-09-01T13:33:55;4.28;;;3.50;;
7193;SDS011;3638;48.820;9.244;2022-09-01T13:36:23;4.15;;;3.50;;
7193;SDS011;3638;48.820;9.244;2022-09-01T13:38:50;3.70;;;3.40;;
7193;SDS011;3638;48.820;9.244;2022-09-01T13:41:16;5.15;;;3.58;;
7193;SDS011;3638;48.820;9.244;2022-09-01T13:43:43;4.32;;;3.83;;
7193;SDS011;3638;48.820;9.244;2022-09-01T13:46:18;4.61;;;3.14;;
7193;SDS011;3638;48.820;9.244;2022-09-01T13:48:45;3.70;;;3.35;;
7193;SDS011;3638;48.820;9.244;2022-09-01T13:51:13;3.95;;;3.65;;
7193;SDS011;3638;48.820;9.244;2022-09-01T13:53:51;4.05;;;3.75;;
7193;SDS011;3638;48.820;9.244;2022-09-01T13:56:18;3.67;;;3.30;;
7193;SDS011;3638;48.820;9.244;2022-09-01T13:58:45;3.75;;;3.30;;
7193;SDS011;3638;48.820;9.244;2022-09-01T14:01:12;17.15;;;4.00;;
7193;SDS011;3638;48.820;9.244;2022-09-01T14:03:39;4.88;;;3.60;;
7193;SDS011;3638;48.820;9.244;2022-09-01T14:06:08;3.78;;;3.42;;
7193;SDS011;3638;48.820;9.244;2022-09-01T14:08:36;3.95;;;3.60;;
7193;SDS011;3638;48.820;9.244;2022-09-01T14:11:03;3.38;;;3.08;;
7193;SDS011;3638;48.820;9.244;2022-09-01T14:13:31;3.72;;;3.42;;
7193;SDS011;3638;48.820;9.244;2022-09-01T14:15:59;4.15;;;3.85;;
7193;SDS011;3638;48.820;9.244;2022-09-01T14:18:26;3.45;;;3.15;;
7193;SDS011;3638;48.820;9.244;2022-09-01T14:20:57;3.47;;;3.17;;
7193;SDS011;3638;48.820;9.244;2022-09-01T14:23:25;3.80;;;3.50;;
7193;SDS011;3638;48.820;9.244;2022-09-01T14:25:54;3.80;;;3.30;;
7193;SDS011;3638;48.820;9.244;2022-09-01T14:28:23;3.70;;;3.40;;
7193;SDS011;3638;48.820;9.244;2022-09-01T14:30:50;4.13;;;3.72;;
7193;SDS011;3638;48.820;9.244;2022-09-01T14:33:18;4.93;;;3.58;;
7193;SDS011;3638;48.820;9.244;2022-09-01T14:35:48;4.82;;;3.47;;
7193;SDS011;3638;48.820;9.244;2022-09-01T14:38:15;3.67;;;3.40;;
7193;SDS011;3638;48.820;9.244;2022-09-01T14:40:42;3.08;;;2.85;;
7193;SDS011;3638;48.820;9.244;2022-09-01T14:43:17;3.42;;;3.13;;
7193;SDS011;3638;48.820;9.244;2022-09-01T14:45:44;3.58;;;3.10;;
7193;SDS011;3638;48.820;9.244;2022-09-01T14:48:12;3.63;;;3.33;;
7193;SDS011;3638;48.820;9.244;2022-09-01T14:50:40;3.25;;;3.03;;
7193;SDS011;3638;48.820;9.244;2022-09-01T14:53:10;3.50;;;3.20;;
7193;SDS011;3638;48.820;9.244;2022-09-01T14:55:38;3.78;;;3.38;;
7193;SDS011;3638;48.820;9.244;2022-09-01T14:58:05;4.10;;;3.17;;
7193;SDS011;3638;48.820;9.244;2022-09-01T15:00:33;3.05;;;2.78;;
7193;SDS011;3638;48.820;9.244;2022-09-01T15:03:01;4.05;;;3.03;;
7193;SDS011;3638;48.820;9.244;2022-09-01T15:05:28;2.90;;;2.70;;
7193;SDS011;3638;48.820;9.244;2022-09-01T15:07:55;3.97;;;2.97;;
7193;SDS011;3638;48.820;9.244;2022-09-01T15:10:23;3.05;;;2.75;;
7193;SDS011;3638;48.820;9.244;2022-09-01T15:12:52;3.20;;;2.90;;
7193;SDS011;3638;48.820;9.244;2022-09-01T15:15:20;2.75;;;2.50;;
7193;SDS011;3638;48.820;9.244;2022-09-01T15:17:49;2.88;;;2.67;;
7193;SDS011;3638;48.820;9.244;2022-09-01T15:20:16;2.85;;;2.65;;
7193;SDS011;3638;48.820;9.244;2022-09-01T15:23:01;3.35;;;3.05;;
7193;SDS011;3638;48.820;9.244;2022-09-01T15:25:31;3.25;;;2.95;;
7193;SDS011;3638;48.820;9.244;2022-09-01T15:27:58;5.70;;;2.70;;
7193;SDS011;3638;48.820;9.244;2022-09-01T15:30:25;3.15;;;2.80;;
7193;SDS011;3638;48.820;9.244;2022-09-01T15:32:53;3.15;;;2.88;;
7193;SDS011;3638;48.820;9.244;2022-09-01T15:35:20;3.67;;;2.90;;
7193;SDS011;3638;48.820;9.244;2022-09-01T15:37:48;3.53;;;3.22;;
7193;SDS011;3638;48.820;9.244;2022-09-01T15:40:16;2.90;;;2.63;;
7193;SDS011;3638;48.820;9.244;2022-09-01T15:42:44;5.20;;;3.20;;
7193;SDS011;3638;48.820;9.244;2022-09-01T15:45:12;3.72;;;2.95;;
7193;SDS011;3638;48.820;9.244;2022-09-01T15:47:43;3.50;;;3.20;;